Time;durP1;ratioP1;P1;durP2;ratioP2;P2;SDS_P1;SDS_P2;PMS_P1;PMS_P2;Temp;Humidity;BMP_temperature;BMP_pressure;BME280_temperature;BME280_humidity;BME280_pressure;Samples;Min_cycle;Max_cycle;Signal;HPM_P1;HPM_P2
2024/02/26 00:02:18;;;;;;;17.70;6.10;;;;;;;12.36;56.34;101934.72;106949;1254;25501;-54
2024/02/26 00:04:45;;;;;;;11.20;5.10;;;;;;;12.35;56.30;101935.42;106957;1261;25402;-54
2024/02/26 00:07:13;;;;;;;14.60;5.60;;;;;;;12.33;56.44;101932.48;106937;1252;25369;-55
2024/02/26 00:09:40;;;;;;;11.30;5.40;;;;;;;12.32;56.41;101931.80;106958;1267;25361;-54
2024/02/26 00:12:07;;;;;;;22.20;6.60;;;;;;;12.31;56.56;101938.59;106332;1264;1002857;-54
2024/02/26 00:14:34;;;;;;;14.20;5.60;;;;;;;12.30;56.63;101937.57;107057;1258;22523;-54
2024/02/26 00:17:01;;;;;;;17.00;5.40;;;;;;;12.30;56.65;101934.78;107171;1264;25360;-54
2024/02/26 00:19:28;;;;;;;13.40;5.70;;;;;;;12.31;56.74;101933.55;107120;1253;25417;-54
2024/02/26 00:21:55;;;;;;;15.90;5.40;;;;;;;12.32;56.74;101928.69;107138;1263;25373;-54
2024/02/26 00:24:22;;;;;;;12.40;5.80;;;;;;;12.30;56.73;101927.13;106835;1259;25383;-54
2024/02/26 00:26:52;;;;;;;17.60;6.10;;;;;;;12.29;56.80;101922.09;107103;1254;23001;-54
2024/02/26 00:29:20;;;;;;;15.70;5.70;;;;;;;12.29;56.83;101920.70;107068;1258;25390;-55
2024/02/26 00:31:47;;;;;;;20.50;6.30;;;;;;;12.28;56.83;101918.98;107068;1267;22539;-54
2024/02/26 00:34:14;;;;;;;14.00;6.20;;;;;;;12.27;56.93;101912.71;107055;1253;25489;-55
2024/02/26 00:36:42;;;;;;;17.80;6.20;;;;;;;12.26;56.94;101910.11;106929;1263;25364;-54
2024/02/26 00:39:09;;;;;;;21.60;7.00;;;;;;;12.27;56.98;101906.27;107043;1267;25443;-55
2024/02/26 00:41:42;;;;;;;16.60;5.80;;;;;;;12.27;57.06;101908.19;107175;1263;25382;-54
2024/02/26 00:44:09;;;;;;;14.10;5.80;;;;;;;12.28;57.04;101906.79;107122;1257;25369;-54
2024/02/26 00:46:36;;;;;;;18.10;5.90;;;;;;;12.29;57.08;101901.39;106842;1266;25355;-55
2024/02/26 00:49:03;;;;;;;13.80;5.70;;;;;;;12.31;57.15;101893.54;107033;1256;25428;-55
2024/02/26 00:51:30;;;;;;;16.10;6.30;;;;;;;12.31;57.07;101888.48;106300;1253;1003828;-54
2024/02/26 00:53:58;;;;;;;14.90;5.70;;;;;;;12.29;57.08;101883.12;106297;1265;1014756;-55
2024/02/26 00:56:25;;;;;;;16.10;6.30;;;;;;;12.27;57.20;101880.88;107139;1257;25361;-54
2024/02/26 00:58:52;;;;;;;14.70;5.70;;;;;;;12.25;57.32;101874.98;106963;1257;25354;-54
2024/02/26 01:01:19;;;;;;;12.10;5.20;;;;;;;12.24;57.33;101876.55;107005;1266;25436;-55
2024/02/26 01:03:46;;;;;;;19.20;6.30;;;;;;;12.25;57.40;101876.20;107079;1255;25385;-54
2024/02/26 01:06:14;;;;;;;22.30;6.40;;;;;;;12.25;57.45;101876.90;107209;1257;25352;-54
2024/02/26 01:08:41;;;;;;;15.90;5.60;;;;;;;12.24;57.43;101877.77;107125;1254;25351;-55
2024/02/26 01:11:08;;;;;;;12.10;6.20;;;;;;;12.23;57.56;101870.66;107030;1260;25236;-54
2024/02/26 01:13:35;;;;;;;16.40;6.00;;;;;;;12.23;57.65;101867.52;107013;1256;25379;-55
2024/02/26 01:16:03;;;;;;;19.70;6.80;;;;;;;12.23;57.75;101872.57;107064;1268;25383;-54
2024/02/26 01:18:30;;;;;;;17.20;5.90;;;;;;;12.24;57.76;101873.96;106861;1267;25341;-55
2024/02/26 01:20:57;;;;;;;19.60;7.30;;;;;;;12.25;57.66;101875.16;107096;1250;25501;-55
2024/02/26 01:23:24;;;;;;;17.10;6.60;;;;;;;12.26;57.74;101874.27;107003;1257;23865;-54
2024/02/26 01:25:51;;;;;;;16.40;6.30;;;;;;;12.26;57.86;101871.84;107191;1257;25447;-55
2024/02/26 01:28:18;;;;;;;22.10;6.60;;;;;;;12.28;57.88;101875.48;107132;1258;25538;-55
2024/02/26 01:30:45;;;;;;;17.50;6.90;;;;;;;12.30;57.96;101877.19;107148;1253;25447;-55
2024/02/26 01:33:12;;;;;;;19.20;7.00;;;;;;;12.32;57.96;101875.95;106350;1264;1003052;-55
2024/02/26 01:35:39;;;;;;;13.40;6.10;;;;;;;12.34;57.93;101873.66;106394;1253;1015523;-55
2024/02/26 01:38:07;;;;;;;16.40;6.00;;;;;;;12.37;57.92;101868.58;106822;1267;25493;-55
2024/02/26 01:40:34;;;;;;;21.90;7.30;;;;;;;12.38;57.85;101869.45;106129;1267;1003638;-54
2024/02/26 01:43:01;;;;;;;15.40;6.80;;;;;;;12.36;57.83;101865.64;107095;1256;25340;-54
2024/02/26 01:45:28;;;;;;;17.70;7.50;;;;;;;12.37;57.93;101863.72;106797;1264;25365;-56
2024/02/26 01:47:56;;;;;;;20.50;6.60;;;;;;;12.39;57.81;101862.48;107047;1264;25374;-55
2024/02/26 01:50:24;;;;;;;14.60;6.80;;;;;;;12.38;57.89;101852.90;107064;1256;25341;-55
2024/02/26 01:52:51;;;;;;;16.20;6.80;;;;;;;12.38;57.80;101859.70;107040;1256;25351;-55
2024/02/26 01:55:18;;;;;;;17.00;6.40;;;;;;;12.37;57.77;101860.76;107068;1259;25376;-55
2024/02/26 01:57:46;;;;;;;17.40;6.60;;;;;;;12.36;57.80;101857.45;106887;1269;25351;-54
2024/02/26 02:00:13;;;;;;;18.30;6.50;;;;;;;12.35;57.77;101853.11;107123;1262;22603;-55
2024/02/26 02:02:41;;;;;;;16.60;7.00;;;;;;;12.35;57.82;101851.39;107096;1252;24399;-54
2024/02/26 02:05:09;;;;;;;13.20;6.10;;;;;;;12.34;57.71;101848.80;106851;1257;25355;-55
2024/02/26 02:07:36;;;;;;;16.90;7.40;;;;;;;12.33;57.71;101851.92;107153;1266;25379;-55
2024/02/26 02:10:03;;;;;;;18.50;7.10;;;;;;;12.33;57.71;101857.84;107089;1257;25370;-55
2024/02/26 02:12:32;;;;;;;21.80;6.50;;;;;;;12.31;57.65;101860.65;106846;1256;22629;-55
2024/02/26 02:15:00;;;;;;;19.80;7.00;;;;;;;12.28;57.64;101865.90;107044;1269;23861;-55
2024/02/26 02:17:28;;;;;;;17.90;7.00;;;;;;;12.25;57.73;101862.98;106910;1271;25380;-55
2024/02/26 02:19:55;;;;;;;15.60;8.00;;;;;;;12.24;57.80;101867.18;107099;1253;25379;-56
2024/02/26 02:22:22;;;;;;;19.60;7.80;;;;;;;12.22;57.88;101866.83;107191;1254;25341;-55
2024/02/26 02:24:52;;;;;;;16.10;7.10;;;;;;;12.20;57.80;101863.89;106164;1256;1003044;-55
2024/02/26 02:27:19;;;;;;;14.00;6.80;;;;;;;12.19;57.90;101862.52;107136;1256;25354;-55
2024/02/26 02:29:46;;;;;;;22.50;7.90;;;;;;;12.17;57.88;101861.84;107071;1255;22642;-55
2024/02/26 02:32:13;;;;;;;17.10;7.90;;;;;;;12.17;57.88;101859.41;107030;1256;25373;-56
2024/02/26 02:34:40;;;;;;;17.60;7.50;;;;;;;12.17;57.90;101858.02;107172;1256;25435;-55
2024/02/26 02:37:07;;;;;;;20.90;7.80;;;;;;;12.18;57.93;101862.52;107132;1268;25353;-56
2024/02/26 02:39:34;;;;;;;15.00;6.80;;;;;;;12.21;57.87;101856.93;107025;1264;25357;-56
2024/02/26 02:42:01;;;;;;;15.60;7.00;;;;;;;12.22;57.91;101857.09;107065;1252;22621;-55
2024/02/26 02:44:28;;;;;;;15.20;7.00;;;;;;;12.23;57.91;101860.91;107119;1256;25412;-55
2024/02/26 02:46:55;;;;;;;19.40;7.60;;;;;;;12.24;57.90;101863.16;107057;1258;25354;-55
2024/02/26 02:49:23;;;;;;;22.40;7.60;;;;;;;12.24;57.90;101863.86;106997;1254;25361;-55
2024/02/26 02:51:50;;;;;;;15.20;7.60;;;;;;;12.24;57.90;101858.13;106792;1259;25380;-55
2024/02/26 02:54:17;;;;;;;10.20;6.20;;;;;;;12.23;57.93;101854.83;106723;1264;25570;-55
2024/02/26 02:56:45;;;;;;;16.60;8.00;;;;;;;12.23;57.91;101850.65;107125;1256;25368;-55
2024/02/26 02:59:12;;;;;;;14.80;6.90;;;;;;;12.24;57.96;101848.73;107041;1258;25361;-55
2024/02/26 03:01:39;;;;;;;16.40;7.20;;;;;;;12.23;57.91;101849.08;107051;1253;25350;-55
2024/02/26 03:04:06;;;;;;;15.70;6.70;;;;;;;12.22;57.88;101851.52;106313;1252;1002907;-55
2024/02/26 03:06:33;;;;;;;13.40;7.20;;;;;;;12.20;57.92;101855.02;106957;1264;25354;-56
2024/02/26 03:09:00;;;;;;;17.30;7.10;;;;;;;12.21;57.97;101857.28;107135;1257;22530;-55
2024/02/26 03:11:28;;;;;;;21.80;7.80;;;;;;;12.21;57.92;101859.37;107103;1256;25358;-55
2024/02/26 03:13:55;;;;;;;19.40;7.30;;;;;;;12.21;57.97;101857.97;107060;1257;23875;-55
2024/02/26 03:16:22;;;;;;;14.00;6.90;;;;;;;12.21;57.96;101851.54;106955;1257;25488;-55
2024/02/26 03:18:49;;;;;;;19.80;7.10;;;;;;;12.21;58.01;101844.40;107000;1256;25370;-55
2024/02/26 03:21:16;;;;;;;13.10;6.80;;;;;;;12.22;58.09;101848.73;107030;1257;25501;-56
2024/02/26 03:23:43;;;;;;;17.20;7.70;;;;;;;12.23;57.97;101845.61;106999;1254;22530;-55
2024/02/26 03:26:13;;;;;;;16.00;6.60;;;;;;;12.21;57.97;101844.75;106821;1269;25351;-54
2024/02/26 03:28:40;;;;;;;17.50;6.30;;;;;;;12.20;57.93;101845.98;107084;1251;25501;-55
2024/02/26 03:31:07;;;;;;;13.80;6.40;;;;;;;12.20;57.99;101848.59;107097;1264;25379;-56
2024/02/26 03:33:34;;;;;;;15.50;6.30;;;;;;;12.20;57.98;101846.50;106963;1267;25379;-57
2024/02/26 03:36:02;;;;;;;17.20;7.20;;;;;;;12.20;57.92;101849.63;106835;1267;25408;-55
2024/02/26 03:38:30;;;;;;;14.10;7.20;;;;;;;12.20;57.97;101852.77;107074;1255;25383;-57
2024/02/26 03:40:57;;;;;;;16.90;6.90;;;;;;;12.20;57.92;101848.60;107096;1255;25364;-57
2024/02/26 03:43:24;;;;;;;16.60;6.90;;;;;;;12.18;57.88;101851.92;107016;1257;25351;-57
2024/02/26 03:45:50;;;;;;;12.90;6.60;;;;;;;12.18;57.91;101849.14;106905;1261;25488;-55
2024/02/26 03:48:17;;;;;;;18.10;7.30;;;;;;;12.18;57.82;101844.61;106745;1256;25677;-56
2024/02/26 03:50:45;;;;;;;13.60;6.40;;;;;;;12.17;57.77;101842.36;106724;1256;25361;-55
2024/02/26 03:53:12;;;;;;;11.40;5.90;;;;;;;12.15;57.73;101840.13;106858;1257;25348;-56
2024/02/26 03:55:41;;;;;;;14.90;6.90;;;;;;;12.14;57.70;101837.70;106968;1254;26501;-56
2024/02/26 03:58:09;;;;;;;19.90;7.50;;;;;;;12.12;57.65;101833.55;107025;1263;25396;-56
2024/02/26 04:00:37;;;;;;;15.30;6.60;;;;;;;12.12;57.69;101837.55;107014;1257;25419;-56
2024/02/26 04:03:04;;;;;;;18.30;7.70;;;;;;;12.11;57.69;101844.17;106860;1269;25351;-55
2024/02/26 04:05:31;;;;;;;19.30;8.10;;;;;;;12.10;57.72;101843.66;107175;1255;25294;-55
2024/02/26 04:07:58;;;;;;;17.30;6.90;;;;;;;12.06;57.60;101843.53;106984;1257;25380;-55
2024/02/26 04:10:25;;;;;;;16.60;6.90;;;;;;;12.02;57.63;101844.10;106879;1265;25501;-55
2024/02/26 04:12:52;;;;;;;14.90;6.60;;;;;;;11.99;57.67;101840.13;106780;1256;22629;-56
2024/02/26 04:15:19;;;;;;;16.60;7.00;;;;;;;11.96;57.71;101845.38;106817;1268;22603;-56
2024/02/26 04:17:46;;;;;;;19.80;8.20;;;;;;;11.94;57.83;101846.44;107149;1258;25379;-57
2024/02/26 04:20:15;;;;;;;14.40;6.70;;;;;;;11.94;57.80;101847.65;107272;1255;25370;-58
2024/02/26 04:22:42;;;;;;;13.60;6.90;;;;;;;11.94;57.87;101850.78;107213;1253;26896;-56
2024/02/26 04:25:09;;;;;;;19.90;7.50;;;;;;;11.95;57.78;101850.27;107001;1257;25501;-57
2024/02/26 04:27:36;;;;;;;14.80;6.70;;;;;;;11.95;57.80;101846.25;106911;1274;25383;-57
2024/02/26 04:30:05;;;;;;;17.30;7.30;;;;;;;11.95;57.70;101844.34;107021;1265;25341;-57
2024/02/26 04:32:32;;;;;;;14.40;7.40;;;;;;;11.94;57.72;101844.17;107257;1256;25383;-57
2024/02/26 04:35:03;;;;;;;14.10;7.10;;;;;;;11.94;57.73;101842.27;107075;1261;24214;-57
2024/02/26 04:37:30;;;;;;;14.30;6.50;;;;;;;11.93;57.69;101841.91;107120;1258;24190;-57
2024/02/26 04:40:00;;;;;;;16.70;7.50;;;;;;;11.92;57.68;101836.38;107075;1258;25400;-56
2024/02/26 04:42:28;;;;;;;14.60;7.00;;;;;;;11.89;57.65;101839.36;107007;1259;25428;-58
2024/02/26 04:44:55;;;;;;;18.60;7.60;;;;;;;11.88;57.69;101833.64;107189;1265;25382;-57
2024/02/26 04:47:22;;;;;;;13.20;6.90;;;;;;;11.89;57.78;101835.38;107083;1258;25501;-55
2024/02/26 04:49:50;;;;;;;12.80;6.80;;;;;;;11.88;57.75;101838.67;107098;1255;23341;-56
2024/02/26 04:52:18;;;;;;;18.70;7.50;;;;;;;11.82;57.89;101838.05;106343;1261;1003601;-56
2024/02/26 04:54:45;;;;;;;17.50;7.60;;;;;;;11.84;57.86;101838.54;107018;1274;22572;-56
2024/02/26 04:57:12;;;;;;;14.00;7.10;;;;;;;11.78;58.12;101841.38;107019;1256;24194;-55
2024/02/26 04:59:40;;;;;;;15.40;7.40;;;;;;;11.83;57.97;101843.42;107057;1258;25370;-55
2024/02/26 05:02:07;;;;;;;15.70;7.80;;;;;;;11.82;58.04;101845.16;107184;1259;25488;-56
2024/02/26 05:04:35;;;;;;;17.30;7.30;;;;;;;11.80;58.17;101846.56;106815;1258;456943;-56
2024/02/26 05:07:02;;;;;;;19.00;6.80;;;;;;;11.85;58.10;101850.17;107140;1254;25434;-55
2024/02/26 05:09:29;;;;;;;19.10;6.80;;;;;;;11.86;58.08;101851.20;107016;1256;25376;-57
2024/02/26 05:11:56;;;;;;;17.80;7.60;;;;;;;11.86;58.05;101855.56;106414;1265;1002905;-56
2024/02/26 05:14:23;;;;;;;17.00;7.70;;;;;;;11.86;58.10;101859.55;107016;1256;25350;-57
2024/02/26 05:16:50;;;;;;;16.00;7.30;;;;;;;11.86;58.08;101861.98;106179;1259;1003786;-55
2024/02/26 05:19:19;;;;;;;17.00;7.20;;;;;;;11.86;58.18;101861.65;107185;1268;25375;-55
2024/02/26 05:21:48;;;;;;;15.90;7.20;;;;;;;11.85;58.20;101860.27;106839;1269;25416;-55
2024/02/26 05:24:17;;;;;;;16.60;7.30;;;;;;;11.85;58.26;101862.17;107123;1258;25351;-55
2024/02/26 05:26:45;;;;;;;15.90;7.70;;;;;;;11.86;58.18;101856.60;107055;1263;24271;-56
2024/02/26 05:29:12;;;;;;;17.80;7.30;;;;;;;11.87;58.14;101858.52;107030;1259;25351;-56
2024/02/26 05:31:39;;;;;;;22.60;8.40;;;;;;;11.87;58.18;101859.39;107080;1258;25428;-56
2024/02/26 05:34:06;;;;;;;19.20;8.70;;;;;;;11.87;58.30;101862.69;107008;1266;25376;-56
2024/02/26 05:36:33;;;;;;;19.30;8.90;;;;;;;11.88;58.35;101866.14;107115;1257;25366;-55
2024/02/26 05:39:01;;;;;;;16.90;8.80;;;;;;;11.91;58.39;101870.12;107099;1256;25352;-56
2024/02/26 05:41:28;;;;;;;18.90;8.70;;;;;;;11.94;58.33;101871.47;107040;1257;25368;-55
2024/02/26 05:43:55;;;;;;;14.90;7.80;;;;;;;11.97;58.38;101872.32;106433;1255;1002908;-55
2024/02/26 05:46:22;;;;;;;21.50;9.40;;;;;;;12.02;58.30;101877.66;107031;1257;25340;-55
2024/02/26 05:48:51;;;;;;;20.50;8.40;;;;;;;12.05;58.25;101872.41;106803;1261;25338;-55
2024/02/26 05:51:19;;;;;;;18.40;9.20;;;;;;;12.07;58.28;101873.25;106304;1264;1002945;-57
2024/02/26 05:53:53;;;;;;;17.10;9.60;;;;;;;12.10;58.18;101873.92;106976;1259;25365;-56
2024/02/26 05:56:23;;;;;;;17.80;8.10;;;;;;;12.12;58.27;101874.08;106775;1267;25327;-55
2024/02/26 05:58:51;;;;;;;18.30;8.80;;;;;;;12.15;58.31;101878.55;107061;1260;25419;-55
2024/02/26 06:01:19;;;;;;;16.10;8.60;;;;;;;12.19;58.23;101884.26;106931;1261;25351;-54
2024/02/26 06:03:46;;;;;;;21.70;8.90;;;;;;;12.22;58.26;101887.55;107024;1255;25353;-54
2024/02/26 06:06:15;;;;;;;19.80;8.80;;;;;;;12.25;58.21;101887.86;107108;1256;25334;-54
2024/02/26 06:08:42;;;;;;;18.70;8.30;;;;;;;12.30;58.27;101887.30;107140;1258;25565;-54
2024/02/26 06:11:09;;;;;;;23.20;9.70;;;;;;;12.34;58.10;101885.33;107001;1259;25406;-56
2024/02/26 06:13:36;;;;;;;15.40;8.50;;;;;;;12.38;58.00;101893.45;107007;1256;25481;-54
2024/02/26 06:16:03;;;;;;;23.10;9.00;;;;;;;12.41;58.03;101894.46;107087;1256;25363;-55
2024/02/26 06:18:31;;;;;;;20.90;9.30;;;;;;;12.47;58.21;101895.09;106870;1257;25422;-55
2024/02/26 06:20:58;;;;;;;19.70;9.80;;;;;;;12.61;58.41;101891.98;107092;1253;25341;-55
2024/02/26 06:23:25;;;;;;;18.30;8.60;;;;;;;12.81;58.29;101890.15;107004;1256;25535;-55
2024/02/26 06:25:52;;;;;;;16.80;9.00;;;;;;;13.05;57.79;101892.98;106909;1267;25376;-55
2024/02/26 06:28:19;;;;;;;15.30;8.20;;;;;;;13.28;57.03;101890.40;106847;1275;25358;-55
2024/02/26 06:30:46;;;;;;;15.00;7.60;;;;;;;13.47;56.46;101893.41;106901;1266;25372;-55
2024/02/26 06:33:14;;;;;;;15.50;8.00;;;;;;;13.62;55.86;101898.77;106881;1267;25347;-55
2024/02/26 06:35:41;;;;;;;15.90;8.30;;;;;;;13.72;55.51;101899.28;107141;1256;22539;-54
2024/02/26 06:38:09;;;;;;;16.20;7.30;;;;;;;13.83;55.17;101898.92;107069;1263;25376;-55
2024/02/26 06:40:36;;;;;;;14.50;8.20;;;;;;;13.97;54.73;101904.61;107159;1269;25329;-56
2024/02/26 06:43:03;;;;;;;21.20;9.40;;;;;;;14.11;54.34;101907.85;107034;1254;25338;-55
2024/02/26 06:45:30;;;;;;;15.90;8.50;;;;;;;14.21;54.00;101909.41;107015;1269;25574;-55
2024/02/26 06:47:57;;;;;;;20.20;9.00;;;;;;;14.32;53.57;101909.92;106927;1262;25376;-55
2024/02/26 06:50:25;;;;;;;15.70;8.40;;;;;;;14.43;53.24;101908.32;107075;1269;25427;-55
2024/02/26 06:52:52;;;;;;;15.60;8.10;;;;;;;14.52;52.93;101906.92;107165;1267;25351;-55
2024/02/26 06:55:19;;;;;;;15.20;8.80;;;;;;;14.60;52.64;101905.00;106695;1275;25454;-55
2024/02/26 06:57:46;;;;;;;13.10;8.90;;;;;;;14.69;52.17;101906.74;107088;1269;24187;-55
2024/02/26 07:00:16;;;;;;;14.60;8.00;;;;;;;14.75;51.94;101906.13;107086;1268;24376;-54
2024/02/26 07:02:43;;;;;;;19.10;9.50;;;;;;;14.76;51.74;101905.38;106815;1269;25432;-54
2024/02/26 07:05:10;;;;;;;14.60;8.20;;;;;;;14.79;51.57;101903.58;107121;1269;25409;-55
2024/02/26 07:07:38;;;;;;;11.20;8.30;;;;;;;14.82;51.40;101899.34;106837;1267;25398;-55
2024/02/26 07:10:05;;;;;;;14.80;8.60;;;;;;;14.83;51.35;101901.77;106815;1268;22521;-55
2024/02/26 07:12:32;;;;;;;16.40;8.50;;;;;;;14.82;51.17;101903.88;107082;1267;25392;-54
2024/02/26 07:15:00;;;;;;;14.30;8.10;;;;;;;14.81;51.03;101909.14;106924;1268;25501;-55
2024/02/26 07:17:28;;;;;;;14.00;8.90;;;;;;;14.78;50.84;101902.36;106246;1272;1002704;-54
2024/02/26 07:19:55;;;;;;;21.70;9.40;;;;;;;14.72;50.82;101898.13;107104;1255;25407;-55
2024/02/26 07:22:22;;;;;;;14.50;9.00;;;;;;;14.64;51.09;101905.11;107056;1267;25348;-55
2024/02/26 07:24:49;;;;;;;17.20;8.80;;;;;;;14.60;51.15;101903.27;106774;1275;25419;-55
2024/02/26 07:27:17;;;;;;;15.30;8.10;;;;;;;14.58;51.07;101908.73;107142;1270;25414;-55
2024/02/26 07:29:44;;;;;;;14.30;7.80;;;;;;;14.56;51.11;101908.23;107106;1268;25408;-55
2024/02/26 07:32:11;;;;;;;18.70;8.20;;;;;;;14.54;51.21;101901.29;107154;1267;25360;-55
2024/02/26 07:34:41;;;;;;;19.80;8.50;;;;;;;14.52;51.30;101901.51;106757;1269;25568;-55
2024/02/26 07:37:08;;;;;;;15.50;8.00;;;;;;;14.51;51.16;101905.89;107087;1269;25565;-55
2024/02/26 07:39:36;;;;;;;15.50;8.20;;;;;;;14.50;51.18;101909.59;107120;1269;25387;-55
2024/02/26 07:42:04;;;;;;;13.40;8.00;;;;;;;14.48;51.15;101911.36;107093;1255;25366;-55
2024/02/26 07:44:32;;;;;;;14.60;8.10;;;;;;;14.47;51.14;101911.55;107071;1267;24263;-55
2024/02/26 07:46:59;;;;;;;14.90;7.80;;;;;;;14.46;51.16;101911.77;106737;1275;22637;-53
2024/02/26 07:49:26;;;;;;;18.20;8.30;;;;;;;14.45;51.06;101906.90;107015;1269;24384;-55
2024/02/26 07:51:54;;;;;;;15.90;8.50;;;;;;;14.44;50.91;101909.36;106985;1267;25555;-54
2024/02/26 07:54:21;;;;;;;18.30;9.40;;;;;;;14.39;50.92;101914.51;107071;1269;25376;-55
2024/02/26 07:56:48;;;;;;;13.90;7.30;;;;;;;14.33;51.00;101914.64;107024;1268;25516;-55
2024/02/26 07:59:16;;;;;;;18.50;8.10;;;;;;;14.27;51.00;101918.03;106988;1271;24193;-55
2024/02/26 08:01:43;;;;;;;11.30;7.60;;;;;;;14.24;51.13;101918.06;106854;1273;25422;-55
2024/02/26 08:04:12;;;;;;;16.10;7.70;;;;;;;14.24;51.10;101919.29;106814;1273;25532;-55
2024/02/26 08:06:39;;;;;;;23.20;8.70;;;;;;;14.24;51.25;101919.64;106920;1269;25351;-55
2024/02/26 08:09:06;;;;;;;17.80;8.60;;;;;;;14.25;51.34;101924.69;107065;1269;25556;-56
2024/02/26 08:11:33;;;;;;;18.10;8.40;;;;;;;14.28;51.20;101926.40;106869;1269;25346;-55
2024/02/26 08:14:01;;;;;;;17.80;7.20;;;;;;;14.29;51.11;101925.17;106857;1269;25340;-55
2024/02/26 08:16:28;;;;;;;16.40;8.20;;;;;;;14.30;51.15;101926.54;106989;1271;25379;-55
2024/02/26 08:18:55;;;;;;;14.30;7.10;;;;;;;14.33;51.03;101927.53;107246;1268;25341;-55
2024/02/26 08:21:22;;;;;;;14.40;7.70;;;;;;;14.36;50.83;101925.21;107162;1268;25532;-55
2024/02/26 08:23:49;;;;;;;17.70;7.70;;;;;;;14.36;50.89;101921.55;106903;1268;25395;-55
2024/02/26 08:26:17;;;;;;;13.60;8.10;;;;;;;14.37;50.97;101927.81;107215;1267;23280;-55
2024/02/26 08:28:44;;;;;;;19.00;8.50;;;;;;;14.38;50.84;101924.31;106813;1269;25351;-56
2024/02/26 08:31:11;;;;;;;13.70;7.60;;;;;;;14.37;50.95;101920.66;107120;1271;22530;-56
2024/02/26 08:33:38;;;;;;;14.30;8.40;;;;;;;14.39;50.91;101922.71;106999;1271;24350;-55
2024/02/26 08:36:06;;;;;;;13.00;8.20;;;;;;;14.42;50.86;101921.61;107129;1270;25327;-55
2024/02/26 08:38:35;;;;;;;16.40;8.50;;;;;;;14.46;50.99;101918.91;107151;1267;25428;-55
2024/02/26 08:41:05;;;;;;;20.70;7.90;;;;;;;14.48;51.03;101918.70;106944;1267;25380;-55
2024/02/26 08:43:32;;;;;;;12.00;7.40;;;;;;;14.49;50.82;101919.73;107004;1268;25587;-56
2024/02/26 08:45:59;;;;;;;19.00;8.20;;;;;;;14.49;50.67;101920.77;106891;1269;24266;-55
2024/02/26 08:48:26;;;;;;;17.50;8.30;;;;;;;14.49;50.73;101912.21;106927;1269;25413;-55
2024/02/26 08:50:53;;;;;;;14.00;7.90;;;;;;;14.49;50.79;101914.30;107080;1270;25488;-55
2024/02/26 08:53:21;;;;;;;17.60;8.00;;;;;;;14.49;50.87;101912.38;107043;1267;25353;-56
2024/02/26 08:55:58;;;;;;;16.10;8.40;;;;;;;14.51;50.62;101913.41;106873;1268;25425;-55
2024/02/26 08:58:26;;;;;;;17.00;7.50;;;;;;;14.55;50.58;101912.98;106781;1267;25321;-56
2024/02/26 09:00:53;;;;;;;12.80;8.10;;;;;;;14.59;50.65;101907.48;106305;1272;1003676;-55
2024/02/26 09:03:20;;;;;;;15.30;7.90;;;;;;;14.61;50.64;101904.99;107127;1271;25465;-55
2024/02/26 09:05:48;;;;;;;18.10;8.10;;;;;;;14.63;50.70;101899.70;107029;1269;25376;-55
2024/02/26 09:08:15;;;;;;;14.00;7.80;;;;;;;14.67;50.54;101901.55;107085;1271;22531;-55
2024/02/26 09:10:42;;;;;;;17.50;8.30;;;;;;;14.70;50.47;101903.24;107109;1270;25404;-55
2024/02/26 09:16:30;;;;;;;14.80;7.40;;;;;;;14.70;50.46;101897.11;103745;1297;545118;-55
2024/02/26 09:18:58;;;;;;;15.10;7.10;;;;;;;14.65;50.50;101900.17;106153;1281;26540;-55
2024/02/26 09:21:26;;;;;;;14.90;7.80;;;;;;;14.69;50.40;101903.08;106037;1282;24084;-55
2024/02/26 09:23:54;;;;;;;13.00;7.50;;;;;;;14.72;50.41;101903.91;105990;1281;22561;-55
2024/02/26 09:26:21;;;;;;;12.70;7.90;;;;;;;14.75;50.38;101902.45;106107;1281;22636;-55
2024/02/26 09:28:49;;;;;;;15.90;7.60;;;;;;;14.77;50.42;101900.83;105927;1272;25351;-54
2024/02/26 09:31:18;;;;;;;19.50;8.20;;;;;;;14.79;50.40;101896.95;105739;1279;297708;-55
2024/02/26 09:33:46;;;;;;;17.00;7.40;;;;;;;14.83;50.45;101900.55;106196;1278;24254;-55
2024/02/26 09:36:14;;;;;;;18.50;7.30;;;;;;;14.88;50.38;101899.55;105509;1278;1002968;-55
2024/02/26 09:38:42;;;;;;;20.50;7.50;;;;;;;14.91;50.27;101897.38;106088;1281;24222;-55
2024/02/26 09:41:23;;;;;;;15.50;7.00;;;;;;;14.95;50.24;101894.16;106079;1284;24258;-54
2024/02/26 09:43:51;;;;;;;14.40;7.40;;;;;;;14.98;50.26;101889.55;106274;1279;25364;-55
2024/02/26 09:46:20;;;;;;;20.10;7.80;;;;;;;15.02;50.10;101888.06;105952;1279;25392;-55
2024/02/26 09:48:47;;;;;;;14.80;8.30;;;;;;;15.07;50.00;101890.55;106084;1281;23910;-55
2024/02/26 09:51:15;;;;;;;12.40;7.20;;;;;;;15.13;49.94;101892.88;106781;1273;25386;-55
2024/02/26 09:53:45;;;;;;;14.40;7.50;;;;;;;15.16;49.89;101887.91;106648;1275;23880;-55
2024/02/26 09:56:13;;;;;;;16.40;7.60;;;;;;;15.16;49.86;101882.66;106440;1277;22574;-55
2024/02/26 09:58:41;;;;;;;18.10;7.40;;;;;;;15.18;49.79;101879.30;106759;1271;22535;-55
2024/02/26 10:01:11;;;;;;;16.70;7.00;;;;;;;15.19;49.76;101870.52;106545;1272;22526;-56
2024/02/26 10:03:41;;;;;;;14.90;7.40;;;;;;;15.21;49.74;101867.69;106447;1276;23861;-54
2024/02/26 10:06:08;;;;;;;19.80;8.30;;;;;;;15.22;49.51;101868.36;106668;1275;22523;-54
2024/02/26 10:08:37;;;;;;;16.40;7.10;;;;;;;15.22;49.62;101866.80;106395;1274;25386;-56
2024/02/26 10:11:08;;;;;;;16.70;7.90;;;;;;;15.22;49.50;101869.60;106778;1275;25370;-55
2024/02/26 10:13:36;;;;;;;12.90;7.30;;;;;;;15.23;49.60;101869.58;106426;1277;22527;-55
2024/02/26 10:16:06;;;;;;;19.00;7.40;;;;;;;15.25;49.60;101870.23;106771;1274;25386;-55
2024/02/26 10:18:47;;;;;;;16.10;7.30;;;;;;;15.27;49.47;101869.50;106307;1268;22547;-56
2024/02/26 10:24:42;;;;;;;14.00;7.30;;;;;;;15.38;49.24;101867.46;103746;1298;545609;-54
2024/02/26 10:27:10;;;;;;;14.00;6.60;;;;;;;15.36;49.23;101866.11;105916;1283;24257;-55
2024/02/26 10:29:38;;;;;;;14.30;6.80;;;;;;;15.35;48.95;101865.61;106041;1282;23937;-55
2024/02/26 10:32:06;;;;;;;17.50;6.70;;;;;;;15.33;48.98;101864.80;105916;1283;22560;-55
2024/02/26 10:34:34;;;;;;;14.20;7.60;;;;;;;15.30;49.06;101868.19;105953;1283;25356;-55
2024/02/26 10:37:03;;;;;;;11.10;6.10;;;;;;;15.28;49.12;101867.88;105960;1282;22567;-55
2024/02/26 10:42:53;;;;;;;18.40;7.50;;;;;;;15.23;49.14;101861.86;103764;1298;544854;-54
2024/02/26 10:45:21;;;;;;;21.40;8.10;;;;;;;15.21;49.38;101859.63;106732;1276;25364;-55
2024/02/26 10:47:50;;;;;;;13.50;7.20;;;;;;;15.25;49.44;101859.38;106761;1278;25358;-55
2024/02/26 10:50:19;;;;;;;23.00;7.20;;;;;;;15.26;49.14;101860.95;106859;1270;24223;-55
2024/02/26 10:52:46;;;;;;;15.90;6.50;;;;;;;15.23;49.20;101860.64;106766;1273;25335;-55
2024/02/26 10:55:18;;;;;;;16.40;6.80;;;;;;;15.24;49.08;101860.98;106777;1273;24389;-55
2024/02/26 10:57:47;;;;;;;10.70;6.10;;;;;;;15.26;48.82;101860.94;106599;1273;24232;-55
2024/02/26 11:00:15;;;;;;;13.60;6.60;;;;;;;15.28;48.74;101861.09;107088;1267;23861;-55
2024/02/26 11:02:45;;;;;;;18.60;6.90;;;;;;;15.29;48.65;101863.47;106923;1273;22539;-56
2024/02/26 11:05:12;;;;;;;21.00;7.10;;;;;;;15.30;48.69;101861.88;106206;1273;1003704;-56
2024/02/26 11:07:41;;;;;;;20.10;7.40;;;;;;;15.31;48.77;101858.35;106690;1262;23874;-55
2024/02/26 11:10:11;;;;;;;14.40;6.60;;;;;;;15.30;48.52;101852.11;107034;1272;25465;-55
2024/02/26 11:12:39;;;;;;;14.30;6.40;;;;;;;15.25;48.65;101851.17;106851;1272;24259;-55
2024/02/26 11:15:08;;;;;;;15.60;7.10;;;;;;;15.20;48.86;101853.56;107050;1269;22525;-55
2024/02/26 11:17:36;;;;;;;15.10;6.50;;;;;;;15.26;48.83;101852.20;106932;1275;24281;-55
2024/02/26 11:20:05;;;;;;;13.40;7.10;;;;;;;15.30;48.64;101854.55;106888;1270;22540;-54
2024/02/26 11:22:33;;;;;;;12.90;7.50;;;;;;;15.34;48.43;101858.98;106881;1273;22534;-55